Time;durP1;ratioP1;P1;durP2;ratioP2;P2;SDS_P1;SDS_P2;PMS_P1;PMS_P2;Temp;Humidity;BMP_temperature;BMP_pressure;BME280_temperature;BME280_humidity;BME280_pressure;Samples;Min_cycle;Max_cycle;Signal;HPM_P1;HPM_P2
2022/07/07 00:01:24;;;;;;;;;2.00;2.00;;;;;22.49;34.87;102003.84;5017086;28;45490;-62
2022/07/07 00:03:51;;;;;;;;;2.00;2.00;;;;;22.49;34.75;102010.09;5020430;28;45198;-62
2022/07/07 00:06:17;;;;;;;;;2.00;2.00;;;;;22.45;34.79;102004.94;5020699;28;45243;-62
2022/07/07 00:08:42;;;;;;;;;3.25;1.00;;;;;22.43;34.88;102007.69;5020858;28;45262;-62
2022/07/07 00:11:08;;;;;;;;;1.25;1.25;;;;;22.38;35.38;102007.03;5020411;28;45704;-64
2022/07/07 00:13:33;;;;;;;;;2.00;2.00;;;;;22.37;35.04;102010.66;5035988;28;45357;-62
2022/07/07 00:15:58;;;;;;;;;3.25;2.50;;;;;22.33;35.61;102009.88;5020626;28;45319;-62
2022/07/07 00:18:24;;;;;;;;;2.00;2.00;;;;;22.32;35.45;102009.94;5020569;28;45284;-62
2022/07/07 00:20:49;;;;;;;;;1.00;1.00;;;;;22.28;35.71;102006.53;5020491;28;45299;-62
2022/07/07 00:23:15;;;;;;;;;3.00;3.00;;;;;22.21;35.59;102002.38;5020934;28;45394;-61
2022/07/07 00:25:40;;;;;;;;;3.00;2.00;;;;;22.17;35.71;101996.28;5020378;28;45311;-61
2022/07/07 00:28:05;;;;;;;;;3.00;3.00;;;;;22.14;35.47;101996.41;5020646;28;45505;-61
2022/07/07 00:30:31;;;;;;;;;1.25;1.00;;;;;22.10;36.13;101989.47;5020261;28;45241;-61
2022/07/07 00:32:56;;;;;;;;;2.00;2.00;;;;;21.98;36.14;101977.47;5019502;28;46237;-61
2022/07/07 00:35:21;;;;;;;;;2.25;2.25;;;;;22.02;36.25;101991.59;5020364;28;45252;-61
2022/07/07 00:37:46;;;;;;;;;4.00;4.00;;;;;21.96;36.01;101987.38;5020497;28;45270;-61
2022/07/07 00:40:12;;;;;;;;;1.75;1.00;;;;;21.95;36.17;101991.00;5020131;28;45264;-61
2022/07/07 00:42:37;;;;;;;;;3.25;3.00;;;;;21.90;36.73;101987.66;5020224;28;45485;-61
2022/07/07 00:45:03;;;;;;;;;2.50;2.50;;;;;21.87;36.09;101987.75;5035668;28;45299;-61
2022/07/07 00:47:31;;;;;;;;;4.50;3.00;;;;;21.81;36.61;101988.91;5019984;28;45581;-61
2022/07/07 00:49:56;;;;;;;;;4.00;4.00;;;;;21.81;36.55;101982.66;5020182;28;45307;-61
2022/07/07 00:52:22;;;;;;;;;2.75;2.75;;;;;21.75;36.37;101973.97;5020169;28;45244;-61
2022/07/07 00:54:59;;;;;;;;;3.00;2.00;;;;;21.73;36.39;101978.50;5020133;28;45323;-61
2022/07/07 00:57:25;;;;;;;;;3.00;3.00;;;;;21.68;36.95;101975.16;5020196;28;45324;-61
2022/07/07 00:59:54;;;;;;;;;1.75;1.50;;;;;21.69;36.91;101973.34;5016504;28;45364;-61
2022/07/07 01:02:20;;;;;;;;;4.75;3.00;;;;;21.66;36.68;101973.47;5019749;28;45244;-61
2022/07/07 01:04:45;;;;;;;;;4.25;3.00;;;;;21.65;37.23;101969.09;5019563;28;45235;-61
2022/07/07 01:07:11;;;;;;;;;2.75;2.00;;;;;21.63;37.43;101966.44;5018700;28;45519;-61
2022/07/07 01:09:37;;;;;;;;;3.00;3.00;;;;;21.59;37.27;101955.00;5019810;28;46152;-61
2022/07/07 01:12:03;;;;;;;;;2.00;2.00;;;;;21.57;37.43;101954.22;5019879;28;45340;-60
2022/07/07 01:14:29;;;;;;;;;3.25;3.00;;;;;21.50;37.55;101946.47;5019906;28;45499;-60
2022/07/07 01:16:55;;;;;;;;;1.75;1.75;;;;;21.52;37.10;101949.94;5019678;28;45593;-61
2022/07/07 01:19:23;;;;;;;;;2.00;1.00;;;;;21.47;37.41;101947.47;5019454;28;45326;-62
2022/07/07 01:21:57;;;;;;;;;4.00;3.50;;;;;21.46;37.24;101947.50;5019652;28;45389;-61
2022/07/07 01:24:26;;;;;;;;;2.00;1.00;;;;;21.40;37.20;101951.31;5019682;28;45324;-61
2022/07/07 01:27:13;;;;;;;;;2.00;2.00;;;;;21.40;37.54;101949.50;5019448;28;45232;-61
2022/07/07 01:29:41;;;;;;;;;2.25;2.25;;;;;21.37;37.49;101957.66;5019511;28;45858;-61
2022/07/07 01:32:10;;;;;;;;;4.25;3.00;;;;;21.36;37.90;101953.25;5019274;28;45323;-62
2022/07/07 01:34:36;;;;;;;;;1.00;1.00;;;;;21.33;37.97;101948.00;5019567;28;45315;-61
2022/07/07 01:37:02;;;;;;;;;3.00;3.00;;;;;21.26;37.43;101942.06;5019398;28;45425;-62
2022/07/07 01:39:28;;;;;;;;;2.00;2.00;;;;;21.27;38.01;101945.63;5019351;28;45812;-61
2022/07/07 01:41:54;;;;;;;;;2.75;2.75;;;;;21.27;37.77;101942.94;5019448;28;45280;-61
2022/07/07 01:44:19;;;;;;;;;3.00;2.00;;;;;21.24;37.67;101940.38;5019661;28;45331;-61
2022/07/07 01:46:44;;;;;;;;;4.50;2.75;;;;;21.20;38.01;101934.28;5022362;28;45516;-61
2022/07/07 01:49:10;;;;;;;;;2.75;2.50;;;;;21.19;38.34;101945.03;5022605;28;45585;-60
2022/07/07 01:51:36;;;;;;;;;2.00;2.00;;;;;21.18;38.33;101940.63;5022826;28;45315;-60
2022/07/07 01:54:01;;;;;;;;;3.00;3.00;;;;;21.15;38.35;101932.75;5022967;28;45292;-61
2022/07/07 01:56:27;;;;;;;;;2.00;2.00;;;;;21.15;38.55;101943.44;5022773;28;45383;-61
2022/07/07 01:58:52;;;;;;;;;2.00;2.00;;;;;21.04;38.25;101922.47;5037215;28;49405;-61
2022/07/07 02:01:18;;;;;;;;;3.25;3.25;;;;;21.10;38.13;101935.59;5018741;28;45350;-61
2022/07/07 02:03:43;;;;;;;;;0.75;0.50;;;;;21.07;38.66;101933.06;5022752;28;45330;-61
2022/07/07 02:06:09;;;;;;;;;4.00;2.75;;;;;21.02;38.50;101929.66;5021326;28;45251;-61
2022/07/07 02:08:34;;;;;;;;;2.75;2.00;;;;;21.00;38.98;101926.19;5022636;28;45827;-61
2022/07/07 02:11:14;;;;;;;;;4.25;2.25;;;;;20.96;38.15;101920.09;5022414;28;45362;-61
2022/07/07 02:13:45;;;;;;;;;2.00;2.00;;;;;20.95;38.88;101923.69;5022693;28;45311;-61
2022/07/07 02:16:15;;;;;;;;;6.75;4.75;;;;;20.95;38.42;101929.03;5022192;28;45255;-61
2022/07/07 02:18:43;;;;;;;;;4.00;3.50;;;;;20.94;38.37;101919.28;5021976;28;46267;-60
2022/07/07 02:21:10;;;;;;;;;4.50;3.50;;;;;20.91;38.83;101914.94;5022260;28;45336;-61
2022/07/07 02:23:37;;;;;;;;;2.00;2.00;;;;;20.85;39.09;101907.16;5022591;28;45254;-61
2022/07/07 02:26:03;;;;;;;;;3.50;3.50;;;;;20.86;38.95;101911.56;5022178;28;45480;-61
2022/07/07 02:28:29;;;;;;;;;3.00;2.00;;;;;20.82;38.77;101906.41;5022298;28;46267;-61
2022/07/07 02:30:56;;;;;;;;;4.00;3.00;;;;;20.76;38.79;101907.53;5020719;28;45436;-61
2022/07/07 02:33:22;;;;;;;;;2.50;2.50;;;;;20.74;39.22;101912.94;5022248;28;45419;-61
2022/07/07 02:35:48;;;;;;;;;3.00;3.00;;;;;20.72;39.63;101916.59;5022023;28;45581;-61
2022/07/07 02:38:14;;;;;;;;;4.00;2.75;;;;;20.67;39.54;101914.06;5022138;28;45374;-61
2022/07/07 02:40:39;;;;;;;;;2.00;2.00;;;;;20.64;39.25;101911.50;5021906;28;45205;-61
2022/07/07 02:43:05;;;;;;;;;2.00;2.00;;;;;20.61;39.65;101911.63;5021870;28;45227;-61
2022/07/07 02:45:30;;;;;;;;;3.25;3.25;;;;;20.57;39.36;101913.53;5021845;28;47241;-61
2022/07/07 02:47:56;;;;;;;;;2.75;2.50;;;;;20.54;39.89;101907.44;5021606;28;46167;-61
2022/07/07 02:50:21;;;;;;;;;2.75;2.75;;;;;20.49;39.60;101904.06;5020586;28;45744;-62
2022/07/07 02:52:47;;;;;;;;;3.00;3.00;;;;;20.49;40.19;101906.72;5022105;28;45415;-62
2022/07/07 02:55:12;;;;;;;;;5.00;3.50;;;;;20.44;40.13;101913.13;5021905;28;45161;-62
2022/07/07 02:57:37;;;;;;;;;2.00;2.00;;;;;20.41;40.25;101902.53;5036788;28;45969;-62
2022/07/07 03:00:05;;;;;;;;;4.00;4.00;;;;;20.40;40.10;101911.50;5018614;28;45232;-62
2022/07/07 03:02:30;;;;;;;;;3.00;3.00;;;;;20.37;40.07;101906.25;5021590;28;45321;-62
2022/07/07 03:04:55;;;;;;;;;2.00;2.00;;;;;20.37;40.38;101911.59;5021384;28;45319;-61
2022/07/07 03:07:20;;;;;;;;;3.00;3.00;;;;;20.37;40.27;101905.41;5021750;28;45329;-62
2022/07/07 03:09:46;;;;;;;;;3.50;1.75;;;;;20.33;39.76;101909.13;5021651;28;45783;-62
2022/07/07 03:12:11;;;;;;;;;3.00;3.00;;;;;20.36;39.90;101915.19;5021815;28;45240;-62
2022/07/07 03:14:37;;;;;;;;;3.50;3.50;;;;;20.34;40.44;101917.06;5021611;28;45296;-62
2022/07/07 03:17:02;;;;;;;;;3.50;3.00;;;;;20.33;40.03;101914.47;5021393;28;46350;-62
2022/07/07 03:19:28;;;;;;;;;2.25;2.00;;;;;20.32;40.62;101910.03;5021232;28;45388;-62
2022/07/07 03:21:53;;;;;;;;;3.00;2.00;;;;;20.26;40.66;101905.78;5020524;28;45401;-62
2022/07/07 03:24:19;;;;;;;;;3.00;2.75;;;;;20.29;40.47;101919.03;5020107;28;45239;-62
2022/07/07 03:26:44;;;;;;;;;2.00;2.00;;;;;20.27;40.47;101915.53;5021297;28;46043;-62
2022/07/07 03:29:09;;;;;;;;;4.50;4.00;;;;;20.26;40.40;101913.78;5020935;28;53853;-62
2022/07/07 03:31:35;;;;;;;;;3.00;3.00;;;;;20.20;40.74;101904.22;5021394;28;45316;-62
2022/07/07 03:34:00;;;;;;;;;4.50;2.50;;;;;20.20;41.07;101909.56;5020983;28;45315;-62
2022/07/07 03:36:25;;;;;;;;;2.25;2.00;;;;;20.19;40.96;101913.16;5020857;28;45328;-62
2022/07/07 03:38:51;;;;;;;;;5.00;4.25;;;;;20.17;41.17;101912.31;5021123;28;45240;-62
2022/07/07 03:41:16;;;;;;;;;3.00;2.50;;;;;20.13;41.00;101908.03;5021365;28;45506;-62
2022/07/07 03:43:41;;;;;;;;;2.00;2.00;;;;;20.11;41.19;101904.53;5021063;28;45442;-62
2022/07/07 03:46:07;;;;;;;;;1.75;1.00;;;;;20.07;41.00;101902.91;5021029;28;46106;-62
2022/07/07 03:48:33;;;;;;;;;3.25;2.00;;;;;20.06;41.23;101901.16;5020641;28;45621;-62
2022/07/07 03:50:59;;;;;;;;;3.25;3.25;;;;;20.00;41.59;101902.28;5021135;28;45387;-62
2022/07/07 03:53:24;;;;;;;;;4.75;3.00;;;;;20.01;41.54;101901.31;5020927;28;45471;-62
2022/07/07 03:55:49;;;;;;;;;2.00;2.00;;;;;20.00;41.47;101909.38;5020885;28;46832;-62
2022/07/07 03:58:15;;;;;;;;;3.00;3.00;;;;;19.96;41.72;101903.28;5021150;28;45370;-62
2022/07/07 04:00:40;;;;;;;;;3.00;3.00;;;;;19.92;41.34;101893.66;5017732;28;45348;-62
2022/07/07 04:03:06;;;;;;;;;4.75;3.75;;;;;19.93;41.70;101904.25;5020402;28;45431;-62
2022/07/07 04:05:31;;;;;;;;;5.00;4.00;;;;;19.91;41.94;101903.47;5036169;28;47153;-62
2022/07/07 04:07:57;;;;;;;;;4.25;3.00;;;;;19.89;41.74;101893.78;5019662;28;45437;-62
2022/07/07 04:10:22;;;;;;;;;3.00;3.00;;;;;19.85;41.92;101894.78;5020950;28;45395;-62
2022/07/07 04:12:47;;;;;;;;;2.25;2.25;;;;;19.84;42.13;101885.94;5020538;28;45582;-62
2022/07/07 04:15:13;;;;;;;;;3.50;3.50;;;;;19.83;42.01;101886.84;5020653;28;46314;-62
2022/07/07 04:17:38;;;;;;;;;3.75;3.75;;;;;19.80;42.45;101886.94;5020279;28;45332;-62
2022/07/07 04:20:04;;;;;;;;;4.75;3.00;;;;;19.77;42.62;101884.38;5036099;28;45353;-62
2022/07/07 04:22:30;;;;;;;;;6.00;4.50;;;;;19.76;42.47;101887.94;5020484;28;45411;-62
2022/07/07 04:24:55;;;;;;;;;4.00;3.75;;;;;19.77;42.36;101890.59;5020136;28;53520;-62
2022/07/07 04:27:21;;;;;;;;;4.75;3.25;;;;;19.76;42.29;101894.16;5020472;28;45246;-62
2022/07/07 04:29:47;;;;;;;;;7.00;4.75;;;;;19.76;42.64;101887.94;5020725;28;45506;-62
2022/07/07 04:32:13;;;;;;;;;3.00;3.00;;;;;19.74;42.80;101889.81;5020272;28;45320;-62
2022/07/07 04:34:38;;;;;;;;;4.50;4.50;;;;;19.73;42.79;101886.25;5020072;28;46837;-62
2022/07/07 04:37:05;;;;;;;;;4.50;4.00;;;;;19.73;43.00;101894.25;5020270;28;45343;-62
2022/07/07 04:39:30;;;;;;;;;3.00;3.00;;;;;19.73;42.86;101894.25;5020584;28;45327;-62
2022/07/07 04:41:55;;;;;;;;;3.25;3.00;;;;;19.71;42.62;101896.13;5020180;28;45282;-62
2022/07/07 04:44:21;;;;;;;;;3.75;3.75;;;;;19.76;42.41;101901.28;5002506;28;45973;-62
2022/07/07 04:46:46;;;;;;;;;4.25;4.25;;;;;19.78;42.51;101899.44;5020023;28;45252;-62
2022/07/07 04:49:11;;;;;;;;;7.00;5.50;;;;;19.79;42.90;101909.19;5020061;28;45788;-62
2022/07/07 04:51:37;;;;;;;;;5.50;5.50;;;;;19.80;42.78;101916.28;5020158;28;45536;-62
2022/07/07 04:54:03;;;;;;;;;4.25;4.25;;;;;19.78;43.14;101913.63;5019703;28;45295;-62
2022/07/07 04:56:28;;;;;;;;;6.00;6.00;;;;;19.79;43.09;101909.19;5018658;28;45306;-62
2022/07/07 04:58:54;;;;;;;;;5.00;4.50;;;;;19.80;43.15;101914.47;5019122;28;45515;-62
2022/07/07 05:01:19;;;;;;;;;7.00;4.25;;;;;19.79;43.34;101922.53;5016552;28;45208;-62
2022/07/07 05:03:44;;;;;;;;;4.00;4.00;;;;;19.82;43.01;101930.41;5019563;28;46200;-62
2022/07/07 05:06:10;;;;;;;;;4.75;4.00;;;;;19.81;43.08;101926.88;5019920;28;45248;-61
2022/07/07 05:08:36;;;;;;;;;3.50;3.25;;;;;19.83;42.90;101928.66;5020014;28;45266;-62
2022/07/07 05:11:02;;;;;;;;;5.00;4.00;;;;;19.82;43.19;101925.06;5020034;28;45413;-62
2022/07/07 05:13:27;;;;;;;;;3.50;3.00;;;;;19.85;43.25;101926.78;5020090;28;45195;-62
2022/07/07 05:15:52;;;;;;;;;3.25;3.25;;;;;19.87;43.46;101933.81;5019699;28;45426;-62
2022/07/07 05:18:18;;;;;;;;;4.50;4.50;;;;;19.86;43.31;101936.53;5020014;28;45217;-63
2022/07/07 05:20:43;;;;;;;;;5.00;3.50;;;;;19.86;43.28;101940.09;5022896;28;45173;-62
2022/07/07 05:23:10;;;;;;;;;4.75;3.75;;;;;19.87;43.20;101932.97;5023356;28;47234;-62
2022/07/07 05:25:35;;;;;;;;;6.00;5.00;;;;;19.89;43.30;101939.97;5023208;28;45324;-62
2022/07/07 05:28:01;;;;;;;;;5.25;5.00;;;;;19.91;43.68;101934.59;5023523;28;45378;-62
2022/07/07 05:30:26;;;;;;;;;5.75;4.00;;;;;19.93;43.45;101935.41;5023170;28;45417;-62
2022/07/07 05:32:51;;;;;;;;;4.00;3.50;;;;;19.94;43.75;101932.69;5023046;28;46350;-62
2022/07/07 05:35:17;;;;;;;;;4.50;4.00;;;;;19.99;43.90;101932.53;5023073;28;45263;-62
2022/07/07 05:37:42;;;;;;;;;5.75;3.00;;;;;20.03;43.94;101931.50;5023421;28;45541;-62
2022/07/07 05:40:09;;;;;;;;;5.50;5.00;;;;;20.05;43.61;101926.09;5023106;28;45453;-61
2022/07/07 05:42:34;;;;;;;;;5.50;5.50;;;;;20.08;43.61;101923.34;5023088;28;47788;-61
2022/07/07 05:44:59;;;;;;;;;6.25;4.50;;;;;20.13;43.89;101930.25;5022764;28;45297;-61
2022/07/07 05:47:25;;;;;;;;;7.50;3.25;;;;;20.17;43.89;101933.69;5022893;28;45224;-62
2022/07/07 05:49:50;;;;;;;;;4.25;4.25;;;;;20.21;44.27;101935.28;5022876;28;45409;-62
2022/07/07 05:52:15;;;;;;;;;3.00;2.75;;;;;20.24;44.35;101929.00;5022921;28;45200;-62
2022/07/07 05:54:41;;;;;;;;;5.25;5.25;;;;;20.25;43.83;101936.06;5022481;28;45351;-62
2022/07/07 05:57:06;;;;;;;;;3.25;3.25;;;;;20.21;43.83;101937.09;5022841;28;45213;-62
2022/07/07 05:59:32;;;;;;;;;5.25;3.00;;;;;20.29;43.92;101941.25;5020039;28;45318;-62
2022/07/07 06:01:57;;;;;;;;;5.00;4.25;;;;;20.23;44.19;101932.59;5037382;28;46268;-63
2022/07/07 06:04:23;;;;;;;;;6.75;6.00;;;;;20.35;44.46;101941.94;5022394;28;45454;-62
2022/07/07 06:06:49;;;;;;;;;3.75;3.75;;;;;20.35;44.21;101936.59;5022745;28;45390;-62
2022/07/07 06:09:14;;;;;;;;;5.00;5.00;;;;;20.38;44.10;101942.72;5022753;28;45407;-62
2022/07/07 06:11:39;;;;;;;;;3.00;3.00;;;;;20.41;44.33;101950.59;5022457;28;45272;-62
2022/07/07 06:14:04;;;;;;;;;5.50;5.25;;;;;20.44;44.58;101957.66;5022772;28;45268;-62
2022/07/07 06:16:40;;;;;;;;;9.75;5.00;;;;;20.46;44.66;101964.66;5022028;28;50680;-62
2022/07/07 06:19:06;;;;;;;;;6.00;5.00;;;;;20.52;44.37;101963.56;5022330;28;45256;-62
2022/07/07 06:21:32;;;;;;;;;5.25;4.00;;;;;20.56;44.18;101962.50;5022319;28;46246;-62
2022/07/07 06:23:57;;;;;;;;;4.00;4.00;;;;;20.59;44.10;101962.41;5022228;28;45332;-62
2022/07/07 06:26:22;;;;;;;;;6.00;4.25;;;;;20.66;44.09;101976.41;5022721;28;45364;-62
2022/07/07 06:28:48;;;;;;;;;4.25;4.25;;;;;20.73;44.19;101982.44;5037507;28;45731;-62
2022/07/07 06:31:13;;;;;;;;;5.50;5.25;;;;;20.78;44.35;101989.34;5021352;28;45307;-62
2022/07/07 06:33:39;;;;;;;;;3.00;3.00;;;;;20.82;44.34;101981.19;5022128;28;45312;-62
2022/07/07 06:36:05;;;;;;;;;3.50;3.00;;;;;20.88;44.54;101988.97;5022446;28;45478;-62
2022/07/07 06:38:30;;;;;;;;;4.00;4.00;;;;;20.92;44.71;101990.63;5037047;28;45249;-62
2022/07/07 06:40:59;;;;;;;;;5.25;3.25;;;;;20.93;44.09;101990.56;5021709;28;45334;-62
2022/07/07 06:43:25;;;;;;;;;4.00;2.75;;;;;20.97;43.71;101990.41;5022112;28;45385;-62
2022/07/07 06:45:50;;;;;;;;;5.00;4.00;;;;;21.01;43.77;101992.06;5020777;28;45395;-62
2022/07/07 06:48:16;;;;;;;;;5.50;5.00;;;;;21.03;44.44;101996.44;5021426;28;45443;-62
2022/07/07 06:50:41;;;;;;;;;4.25;4.25;;;;;21.09;44.09;101998.88;5022075;28;45304;-62
2022/07/07 06:53:07;;;;;;;;;14.25;13.50;;;;;21.14;43.91;101997.81;5021946;28;45413;-62
2022/07/07 06:55:33;;;;;;;;;19.00;18.25;;;;;21.18;44.04;102002.97;5021986;28;45248;-62
2022/07/07 06:57:58;;;;;;;;;3.75;3.00;;;;;21.23;43.82;102009.00;5021923;28;45585;-62
2022/07/07 07:00:24;;;;;;;;;5.50;5.50;;;;;21.28;43.71;102000.78;5033450;28;47231;-62
2022/07/07 07:02:49;;;;;;;;;4.00;3.00;;;;;21.34;43.68;102007.72;5021292;28;45461;-62
2022/07/07 07:05:15;;;;;;;;;5.50;4.00;;;;;21.37;43.63;101997.78;5021870;28;45248;-62
2022/07/07 07:07:41;;;;;;;;;4.75;4.00;;;;;21.42;44.22;101997.56;5021731;28;45245;-62
2022/07/07 07:10:07;;;;;;;;;5.50;4.00;;;;;21.50;43.57;102006.16;5021548;28;46247;-62
2022/07/07 07:12:33;;;;;;;;;7.00;5.00;;;;;21.55;43.95;102003.31;5036318;28;45488;-62
2022/07/07 07:14:58;;;;;;;;;5.25;4.75;;;;;21.61;43.92;102004.88;5021685;28;45417;-62
2022/07/07 07:17:24;;;;;;;;;5.00;3.75;;;;;21.65;43.55;102004.72;5021151;28;45536;-62
2022/07/07 07:19:50;;;;;;;;;3.75;3.25;;;;;21.72;43.99;102010.66;5021366;28;46365;-62
2022/07/07 07:22:15;;;;;;;;;5.25;3.00;;;;;21.75;43.98;102010.56;5036788;28;46019;-62
2022/07/07 07:24:40;;;;;;;;;6.00;4.00;;;;;21.81;43.70;102020.13;5021573;28;45353;-63
2022/07/07 07:27:06;;;;;;;;;4.25;4.25;;;;;21.86;43.96;102018.13;5021381;28;45318;-63
2022/07/07 07:29:31;;;;;;;;;3.75;3.75;;;;;21.91;43.62;102027.72;5021319;28;46258;-62
2022/07/07 07:31:56;;;;;;;;;5.00;4.00;;;;;21.93;43.44;102022.28;5021258;28;45459;-62
2022/07/07 07:34:22;;;;;;;;;3.00;3.00;;;;;22.01;43.57;102044.25;5021219;28;45365;-62
2022/07/07 07:36:47;;;;;;;;;6.75;4.25;;;;;22.05;43.32;102039.66;5021279;28;45510;-62
2022/07/07 07:39:12;;;;;;;;;4.50;3.00;;;;;22.07;43.63;102038.66;5021175;28;46120;-62
2022/07/07 07:41:38;;;;;;;;;3.00;2.25;;;;;22.14;43.39;102047.28;5021283;28;45249;-62
2022/07/07 07:44:04;;;;;;;;;5.00;4.50;;;;;22.14;43.18;102041.94;5019771;28;45433;-62
2022/07/07 07:46:29;;;;;;;;;3.75;2.00;;;;;22.20;43.46;102052.38;5020996;28;45231;-62
2022/07/07 07:48:55;;;;;;;;;4.50;3.00;;;;;22.24;43.59;102050.44;5020663;28;45422;-62
2022/07/07 07:51:20;;;;;;;;;3.25;3.25;;;;;;;;5021079;28;45223;-63
2022/07/07 07:53:45;;;;;;;;;3.25;3.25;;;;;22.34;43.26;102053.56;5021170;28;45494;-61
2022/07/07 07:56:11;;;;;;;;;5.50;3.00;;;;;22.38;43.77;102058.78;5036424;28;45903;-62
2022/07/07 07:58:36;;;;;;;;;2.50;2.50;;;;;22.42;43.52;102055.97;5020850;28;46573;-63
2022/07/07 08:01:02;;;;;;;;;3.50;2.75;;;;;22.50;43.47;102075.25;5017332;28;45316;-64
2022/07/07 08:03:27;;;;;;;;;4.25;3.25;;;;;22.55;43.21;102059.84;5020564;28;45452;-64
2022/07/07 08:05:53;;;;;;;;;1.00;0.25;;;;;22.61;42.94;102059.56;5021068;28;45411;-63
2022/07/07 08:08:18;;;;;;;;;3.25;2.50;;;;;22.64;43.33;102055.88;5020390;28;47078;-63
2022/07/07 08:10:44;;;;;;;;;3.50;3.00;;;;;22.69;42.95;102057.44;5020762;28;45373;-63
2022/07/07 08:13:09;;;;;;;;;4.25;3.50;;;;;22.73;43.34;102056.34;5036151;28;45352;-63
2022/07/07 08:15:34;;;;;;;;;3.50;3.50;;;;;22.80;43.23;102056.06;5020821;28;45308;-63
2022/07/07 08:18:00;;;;;;;;;5.00;5.00;;;;;22.83;43.01;102058.59;5020163;28;47391;-63
2022/07/07 08:20:26;;;;;;;;;6.00;4.75;;;;;22.86;43.02;102053.97;5020572;28;45303;-64
2022/07/07 08:22:51;;;;;;;;;3.75;3.50;;;;;22.88;42.71;102053.94;5020593;28;45311;-63
2022/07/07 08:25:17;;;;;;;;;3.00;3.00;;;;;22.88;42.53;102051.25;5020531;28;45327;-63
2022/07/07 08:27:42;;;;;;;;;2.00;2.00;;;;;22.90;42.49;102046.66;5020199;28;45354;-64
2022/07/07 08:30:08;;;;;;;;;3.00;3.00;;;;;22.95;42.54;102043.78;5019424;28;45365;-63
2022/07/07 08:32:33;;;;;;;;;5.00;4.00;;;;;22.95;42.56;102047.31;5020029;28;45344;-64
2022/07/07 08:34:59;;;;;;;;;4.50;3.50;;;;;23.00;42.41;102050.66;5020557;28;45225;-64
2022/07/07 08:37:24;;;;;;;;;2.50;2.25;;;;;23.01;42.42;102043.50;5020161;28;46196;-64
2022/07/07 08:39:50;;;;;;;;;3.00;3.00;;;;;23.05;42.28;102054.00;5019076;28;45341;-64
2022/07/07 08:42:16;;;;;;;;;3.00;3.00;;;;;23.02;42.40;102038.06;5019209;28;45246;-64
2022/07/07 08:44:42;;;;;;;;;3.00;3.00;;;;;23.07;42.06;102043.22;5020451;28;45225;-64
2022/07/07 08:47:07;;;;;;;;;3.00;3.00;;;;;23.07;42.50;102045.91;5019571;28;47369;-64
2022/07/07 08:49:33;;;;;;;;;5.50;2.25;;;;;23.08;42.59;102047.66;5018919;28;45289;-64
2022/07/07 08:51:58;;;;;;;;;2.50;2.50;;;;;23.15;42.53;102059.84;5020218;28;45213;-64
2022/07/07 08:54:26;;;;;;;;;2.00;2.00;;;;;23.20;42.50;102055.13;5019639;28;45178;-64
2022/07/07 08:56:53;;;;;;;;;2.25;2.25;;;;;23.26;42.44;102051.31;5019921;28;47300;-64
2022/07/07 08:59:19;;;;;;;;;5.75;3.25;;;;;23.29;42.37;102037.75;5019149;28;45395;-61
2022/07/07 09:01:55;;;;;;;;;3.75;3.00;;;;;23.38;42.29;102047.16;5016506;28;45222;-63
2022/07/07 09:04:21;;;;;;;;;2.00;2.00;;;;;23.41;42.22;102043.47;5019599;28;45301;-64
2022/07/07 09:07:01;;;;;;;;;2.00;2.00;;;;;23.46;42.19;102045.00;5019633;28;45300;-64
2022/07/07 09:09:35;;;;;;;;;2.00;2.00;;;;;23.52;42.15;102051.84;5019878;28;45391;-64
2022/07/07 09:12:02;;;;;;;;;3.00;2.75;;;;;23.56;42.33;102053.47;5019941;28;45340;-64
2022/07/07 09:14:37;;;;;;;;;3.50;3.50;;;;;23.65;42.21;102050.31;5019351;28;45387;-64
2022/07/07 09:17:13;;;;;;;;;2.00;2.00;;;;;23.73;42.48;102049.09;5018245;28;47098;-64
2022/07/07 09:19:38;;;;;;;;;3.00;3.00;;;;;23.78;42.16;102052.41;5019750;28;45505;-64
2022/07/07 09:22:04;;;;;;;;;2.25;2.25;;;;;23.83;41.85;102045.84;5019865;28;45237;-64
2022/07/07 09:24:29;;;;;;;;;2.75;2.75;;;;;23.90;41.93;102054.50;5018468;28;45859;-64
2022/07/07 09:26:54;;;;;;;;;4.50;4.50;;;;;23.96;41.60;102051.53;5019591;28;54272;-64
2022/07/07 09:29:22;;;;;;;;;2.00;2.00;;;;;24.04;41.82;102047.56;5019618;28;45426;-64
2022/07/07 09:32:01;;;;;;;;;2.25;2.25;;;;;24.14;41.91;102043.50;5019574;28;45324;-64
2022/07/07 09:34:32;;;;;;;;;2.50;1.50;;;;;24.23;41.69;102053.75;5019454;28;45257;-64
2022/07/07 09:39:49;;;;;;;;;2.00;2.00;;;;;24.47;41.72;102056.13;5019631;28;45474;-64
2022/07/07 09:42:26;;;;;;;;;2.50;1.25;;;;;24.59;41.83;102058.16;5019559;28;45415;-64
2022/07/07 09:45:12;;;;;;;;;3.00;3.00;;;;;24.72;41.44;102061.09;5019611;28;45704;-64
2022/07/07 09:47:38;;;;;;;;;1.25;1.25;;;;;24.83;41.32;102060.53;5017476;28;45422;-64
2022/07/07 09:50:06;;;;;;;;;2.00;2.00;;;;;24.92;41.56;102069.91;5019476;28;45395;-64
2022/07/07 09:52:33;;;;;;;;;56.00;45.00;;;;;24.98;41.28;102073.13;5019466;28;45328;-64
2022/07/07 09:55:00;;;;;;;;;3.00;3.00;;;;;25.06;40.84;102078.09;5019412;28;45490;-64
2022/07/07 09:57:26;;;;;;;;;11.50;11.25;;;;;25.12;41.20;102077.75;5019322;28;45268;-64
2022/07/07 09:59:53;;;;;;;;;7.75;7.00;;;;;25.18;41.23;102079.22;5030762;28;45428;-64
2022/07/07 10:02:24;;;;;;;;;3.00;3.00;;;;;25.26;41.08;102085.06;5019247;28;45652;-64
2022/07/07 10:04:55;;;;;;;;;3.25;3.25;;;;;25.34;40.92;102094.53;5019047;28;45348;-64
2022/07/07 10:07:32;;;;;;;;;3.75;3.75;;;;;25.38;40.32;102096.97;5021587;28;46305;-64
2022/07/07 10:10:05;;;;;;;;;5.00;4.75;;;;;25.40;40.63;102105.00;5022623;28;45283;-64
2022/07/07 10:12:32;;;;;;;;;3.75;3.75;;;;;25.39;40.24;102101.41;5022465;28;45286;-64
2022/07/07 10:15:12;;;;;;;;;4.75;3.75;;;;;25.41;40.03;102104.03;5022508;28;45636;-64
2022/07/07 10:17:42;;;;;;;;;3.50;1.75;;;;;25.39;40.00;102109.47;5021859;28;46200;-64
2022/07/07 10:20:09;;;;;;;;;1.00;1.00;;;;;25.39;40.01;102108.63;5022605;28;45453;-64
2022/07/07 10:22:36;;;;;;;;;2.50;2.50;;;;;25.37;40.35;102106.03;5022293;28;45252;-64
2022/07/07 10:25:06;;;;;;;;;2.50;1.25;;;;;25.39;40.10;102114.00;5022583;28;45221;-64
2022/07/07 10:27:33;;;;;;;;;2.50;2.50;;;;;25.40;40.02;102127.38;5020826;28;46513;-64
2022/07/07 10:30:00;;;;;;;;;2.75;2.25;;;;;25.37;40.28;102130.25;5037740;28;45332;-64
2022/07/07 10:32:32;;;;;;;;;2.25;2.25;;;;;25.42;39.85;102132.66;5020435;28;45259;-64
2022/07/07 10:34:59;;;;;;;;;2.00;2.00;;;;;25.41;40.48;102144.41;5022200;28;45298;-64
2022/07/07 10:37:27;;;;;;;;;2.50;2.50;;;;;25.40;40.13;102154.28;5022224;28;45229;-64
2022/07/07 10:39:56;;;;;;;;;2.50;2.50;;;;;25.37;40.30;102157.16;5022130;28;45346;-64
2022/07/07 10:42:30;;;;;;;;;1.00;1.00;;;;;25.34;40.22;102159.94;5022259;28;45482;-64
2022/07/07 10:44:56;;;;;;;;;5.00;2.25;;;;;25.25;39.86;102155.94;5022212;28;45327;-64
2022/07/07 10:47:21;;;;;;;;;2.75;2.75;;;;;25.26;39.93;102165.75;5021494;28;45428;-64
2022/07/07 10:49:52;;;;;;;;;1.50;1.50;;;;;25.21;39.78;102164.28;5022161;28;45458;-64
2022/07/07 10:52:22;;;;;;;;;1.75;1.75;;;;;25.17;39.63;102162.69;5022165;28;45293;-64
2022/07/07 10:54:52;;;;;;;;;2.00;2.00;;;;;25.13;39.83;102161.97;5020459;28;46315;-64
2022/07/07 10:57:19;;;;;;;;;5.00;3.25;;;;;25.13;40.03;102156.59;5037049;28;46059;-64
2022/07/07 11:00:01;;;;;;;;;2.75;2.00;;;;;25.16;40.11;102161.81;5018030;28;45373;-64
2022/07/07 11:02:33;;;;;;;;;3.00;3.00;;;;;25.20;39.63;102166.09;5036838;28;45272;-64
2022/07/07 11:05:01;;;;;;;;;2.00;2.00;;;;;25.24;39.87;102166.78;5021407;28;45288;-64
2022/07/07 11:07:28;;;;;;;;;2.00;2.00;;;;;25.30;39.69;102170.00;5036853;28;48532;-64
2022/07/07 11:09:58;;;;;;;;;1.00;1.00;;;;;25.34;39.86;102169.84;5021509;28;45427;-64
2022/07/07 11:12:38;;;;;;;;;2.75;2.75;;;;;25.37;40.01;102170.59;5036969;28;45390;-64
2022/07/07 11:15:22;;;;;;;;;2.00;2.00;;;;;25.48;39.81;102167.31;5021631;28;45521;-64
2022/07/07 11:17:56;;;;;;;;;2.00;2.00;;;;;25.51;39.43;102177.91;5035905;28;47532;-64
2022/07/07 11:20:24;;;;;;;;;4.00;2.00;;;;;25.50;39.64;102170.78;5021695;28;45162;-64
2022/07/07 11:23:05;;;;;;;;;3.25;3.00;;;;;25.54;39.45;102180.41;5021506;28;45362;-64
2022/07/07 11:25:31;;;;;;;;;5.50;3.50;;;;;25.53;39.49;102186.75;5021276;28;45326;-64
2022/07/07 11:27:57;;;;;;;;;3.00;3.00;;;;;25.52;39.52;102187.72;5021057;28;45233;-64